sensor_id;sensor_type;location;lat;lon;timestamp;pressure;altitude;pressure_sealevel;temperature;humidity
4972;BME280;2501;51.214;6.768;2023-08-06T00:00:32;100138.53;;;15.53;100.00
4972;BME280;2501;51.214;6.768;2023-08-06T00:03:00;100139.44;;;15.52;100.00
4972;BME280;2501;51.214;6.768;2023-08-06T00:05:29;100131.06;;;15.72;100.00
4972;BME280;2501;51.214;6.768;2023-08-06T00:08:00;100128.13;;;15.46;100.00
4972;BME280;2501;51.214;6.768;2023-08-06T00:10:28;100139.66;;;15.43;100.00
4972;BME280;2501;51.214;6.768;2023-08-06T00:12:56;100129.97;;;15.42;100.00
4972;BME280;2501;51.214;6.768;2023-08-06T00:15:25;100127.50;;;15.36;100.00
4972;BME280;2501;51.214;6.768;2023-08-06T00:17:53;100127.53;;;15.35;100.00
4972;BME280;2501;51.214;6.768;2023-08-06T00:20:22;100119.81;;;15.25;100.00
4972;BME280;2501;51.214;6.768;2023-08-06T00:22:50;100113.84;;;15.17;100.00
4972;BME280;2501;51.214;6.768;2023-08-06T00:25:21;100110.41;;;15.14;100.00
4972;BME280;2501;51.214;6.768;2023-08-06T00:27:50;100111.50;;;15.05;100.00
4972;BME280;2501;51.214;6.768;2023-08-06T00:30:18;100114.16;;;15.04;100.00
4972;BME280;2501;51.214;6.768;2023-08-06T00:32:46;100114.94;;;15.07;100.00
4972;BME280;2501;51.214;6.768;2023-08-06T00:35:15;100106.28;;;15.02;100.00
4972;BME280;2501;51.214;6.768;2023-08-06T00:37:43;100106.84;;;15.15;100.00
4972;BME280;2501;51.214;6.768;2023-08-06T00:40:13;100117.38;;;15.16;100.00
4972;BME280;2501;51.214;6.768;2023-08-06T00:42:44;100115.38;;;15.26;100.00
4972;BME280;2501;51.214;6.768;2023-08-06T00:45:12;100116.44;;;15.20;100.00
4972;BME280;2501;51.214;6.768;2023-08-06T00:47:41;100120.69;;;15.26;100.00
4972;BME280;2501;51.214;6.768;2023-08-06T00:50:11;100114.47;;;15.28;100.00
4972;BME280;2501;51.214;6.768;2023-08-06T00:52:40;100121.47;;;15.29;100.00
4972;BME280;2501;51.214;6.768;2023-08-06T00:55:09;100116.88;;;15.39;100.00
4972;BME280;2501;51.214;6.768;2023-08-06T00:57:38;100113.53;;;15.31;100.00
4972;BME280;2501;51.214;6.768;2023-08-06T01:00:10;100116.00;;;15.39;100.00
4972;BME280;2501;51.214;6.768;2023-08-06T01:02:39;100113.34;;;15.39;100.00
4972;BME280;2501;51.214;6.768;2023-08-06T01:05:08;100115.78;;;15.46;100.00
4972;BME280;2501;51.214;6.768;2023-08-06T01:07:47;100104.78;;;15.66;100.00
4972;BME280;2501;51.214;6.768;2023-08-06T01:10:26;100105.28;;;15.43;100.00
4972;BME280;2501;51.214;6.768;2023-08-06T01:13:03;100101.88;;;15.40;100.00
4972;BME280;2501;51.214;6.768;2023-08-06T01:15:41;100102.59;;;15.46;100.00
4972;BME280;2501;51.214;6.768;2023-08-06T01:18:12;100102.78;;;15.39;100.00
4972;BME280;2501;51.214;6.768;2023-08-06T01:20:43;100101.50;;;15.55;100.00
4972;BME280;2501;51.214;6.768;2023-08-06T01:23:12;100096.47;;;15.44;100.00
4972;BME280;2501;51.214;6.768;2023-08-06T01:25:46;100091.13;;;15.46;100.00
4972;BME280;2501;51.214;6.768;2023-08-06T01:28:22;100097.22;;;15.49;100.00
4972;BME280;2501;51.214;6.768;2023-08-06T01:30:54;100098.38;;;15.39;100.00
4972;BME280;2501;51.214;6.768;2023-08-06T01:33:24;100090.47;;;15.75;100.00
4972;BME280;2501;51.214;6.768;2023-08-06T01:35:55;100090.25;;;15.47;100.00
4972;BME280;2501;51.214;6.768;2023-08-06T01:38:25;100092.19;;;15.40;100.00
4972;BME280;2501;51.214;6.768;2023-08-06T01:40:54;100093.16;;;15.36;100.00
4972;BME280;2501;51.214;6.768;2023-08-06T01:43:23;100091.50;;;15.30;100.00
4972;BME280;2501;51.214;6.768;2023-08-06T01:45:51;100088.97;;;15.26;100.00
4972;BME280;2501;51.214;6.768;2023-08-06T01:48:19;100084.47;;;15.31;100.00
4972;BME280;2501;51.214;6.768;2023-08-06T01:50:48;100083.59;;;15.30;100.00
4972;BME280;2501;51.214;6.768;2023-08-06T01:53:19;100084.44;;;15.32;100.00
4972;BME280;2501;51.214;6.768;2023-08-06T01:55:48;100086.25;;;15.29;100.00
4972;BME280;2501;51.214;6.768;2023-08-06T01:58:16;100082.59;;;15.36;100.00
4972;BME280;2501;51.214;6.768;2023-08-06T02:00:44;100071.22;;;15.32;100.00
4972;BME280;2501;51.214;6.768;2023-08-06T02:03:13;100070.41;;;15.29;100.00
4972;BME280;2501;51.214;6.768;2023-08-06T02:05:41;100075.78;;;15.24;100.00
4972;BME280;2501;51.214;6.768;2023-08-06T02:08:11;100071.28;;;15.29;100.00
4972;BME280;2501;51.214;6.768;2023-08-06T02:10:42;100064.28;;;15.27;100.00
4972;BME280;2501;51.214;6.768;2023-08-06T02:13:10;100066.16;;;15.23;100.00
4972;BME280;2501;51.214;6.768;2023-08-06T02:15:42;100071.47;;;15.22;100.00
4972;BME280;2501;51.214;6.768;2023-08-06T02:18:13;100079.94;;;15.36;100.00
4972;BME280;2501;51.214;6.768;2023-08-06T02:20:41;100074.94;;;15.24;100.00
4972;BME280;2501;51.214;6.768;2023-08-06T02:23:09;100074.94;;;15.61;100.00
4972;BME280;2501;51.214;6.768;2023-08-06T02:25:38;100072.50;;;15.52;100.00
4972;BME280;2501;51.214;6.768;2023-08-06T02:28:09;100066.84;;;15.31;100.00
4972;BME280;2501;51.214;6.768;2023-08-06T02:30:37;100065.03;;;15.33;100.00
4972;BME280;2501;51.214;6.768;2023-08-06T02:33:05;100060.09;;;15.20;100.00
4972;BME280;2501;51.214;6.768;2023-08-06T02:35:34;100060.13;;;15.18;100.00
4972;BME280;2501;51.214;6.768;2023-08-06T02:38:02;100056.97;;;15.40;100.00
4972;BME280;2501;51.214;6.768;2023-08-06T02:40:31;100063.53;;;15.23;100.00
4972;BME280;2501;51.214;6.768;2023-08-06T02:42:59;100053.69;;;15.28;100.00
4972;BME280;2501;51.214;6.768;2023-08-06T02:45:31;100060.06;;;15.21;100.00
4972;BME280;2501;51.214;6.768;2023-08-06T02:47:59;100057.00;;;15.38;100.00
4972;BME280;2501;51.214;6.768;2023-08-06T02:50:28;100051.25;;;15.21;100.00
4972;BME280;2501;51.214;6.768;2023-08-06T02:52:56;100050.63;;;15.10;100.00
4972;BME280;2501;51.214;6.768;2023-08-06T02:55:25;100048.00;;;15.08;100.00
4972;BME280;2501;51.214;6.768;2023-08-06T02:57:53;100040.13;;;15.07;100.00
4972;BME280;2501;51.214;6.768;2023-08-06T03:00:21;100046.16;;;15.12;100.00
4972;BME280;2501;51.214;6.768;2023-08-06T03:02:52;100041.75;;;15.12;100.00
4972;BME280;2501;51.214;6.768;2023-08-06T03:05:21;100044.88;;;15.29;100.00
4972;BME280;2501;51.214;6.768;2023-08-06T03:07:49;100037.88;;;15.27;100.00
4972;BME280;2501;51.214;6.768;2023-08-06T03:10:18;100033.16;;;15.04;100.00
4972;BME280;2501;51.214;6.768;2023-08-06T03:12:46;100037.78;;;14.94;100.00
4972;BME280;2501;51.214;6.768;2023-08-06T03:15:15;100028.03;;;14.98;100.00
4972;BME280;2501;51.214;6.768;2023-08-06T03:17:43;100024.41;;;15.02;100.00
4972;BME280;2501;51.214;6.768;2023-08-06T03:20:14;100033.56;;;14.87;100.00
4972;BME280;2501;51.214;6.768;2023-08-06T03:22:43;100026.44;;;14.89;100.00
4972;BME280;2501;51.214;6.768;2023-08-06T03:25:11;100029.97;;;14.90;100.00
4972;BME280;2501;51.214;6.768;2023-08-06T03:27:40;100031.03;;;14.83;100.00
4972;BME280;2501;51.214;6.768;2023-08-06T03:30:09;100029.81;;;14.96;100.00
4972;BME280;2501;51.214;6.768;2023-08-06T03:32:38;100024.69;;;14.90;100.00
4972;BME280;2501;51.214;6.768;2023-08-06T03:35:07;100029.97;;;14.90;100.00
4972;BME280;2501;51.214;6.768;2023-08-06T03:37:38;100022.75;;;14.98;100.00
4972;BME280;2501;51.214;6.768;2023-08-06T03:40:08;100018.06;;;15.09;100.00
4972;BME280;2501;51.214;6.768;2023-08-06T03:42:36;100024.38;;;15.04;100.00
4972;BME280;2501;51.214;6.768;2023-08-06T03:45:06;100024.25;;;15.08;100.00
4972;BME280;2501;51.214;6.768;2023-08-06T03:47:35;100021.06;;;14.94;100.00
4972;BME280;2501;51.214;6.768;2023-08-06T03:50:04;100016.63;;;14.96;100.00
4972;BME280;2501;51.214;6.768;2023-08-06T03:52:33;100012.28;;;14.93;100.00
4972;BME280;2501;51.214;6.768;2023-08-06T03:55:04;100023.69;;;14.95;100.00
4972;BME280;2501;51.214;6.768;2023-08-06T03:57:32;100019.97;;;15.40;100.00
4972;BME280;2501;51.214;6.768;2023-08-06T04:00:01;100021.78;;;15.02;100.00
4972;BME280;2501;51.214;6.768;2023-08-06T04:02:29;100016.22;;;15.13;100.00
4972;BME280;2501;51.214;6.768;2023-08-06T04:04:58;100015.75;;;14.95;100.00
4972;BME280;2501;51.214;6.768;2023-08-06T04:07:27;100019.41;;;14.90;100.00
4972;BME280;2501;51.214;6.768;2023-08-06T04:09:57;100018.59;;;14.88;100.00
4972;BME280;2501;51.214;6.768;2023-08-06T04:12:29;100020.16;;;14.95;100.00
4972;BME280;2501;51.214;6.768;2023-08-06T04:14:59;100019.88;;;15.07;100.00
4972;BME280;2501;51.214;6.768;2023-08-06T04:17:28;100020.16;;;14.95;100.00
4972;BME280;2501;51.214;6.768;2023-08-06T04:19:56;100017.53;;;14.95;100.00
4972;BME280;2501;51.214;6.768;2023-08-06T04:22:26;100022.75;;;14.98;100.00
4972;BME280;2501;51.214;6.768;2023-08-06T04:24:54;100014.81;;;14.98;100.00
4972;BME280;2501;51.214;6.768;2023-08-06T04:27:22;100020.03;;;15.01;100.00
4972;BME280;2501;51.214;6.768;2023-08-06T04:29:53;100027.06;;;15.02;100.00
4972;BME280;2501;51.214;6.768;2023-08-06T04:32:22;100014.69;;;15.04;100.00
4972;BME280;2501;51.214;6.768;2023-08-06T04:34:51;100023.31;;;15.11;100.00
4972;BME280;2501;51.214;6.768;2023-08-06T04:37:19;100018.22;;;15.03;100.00
4972;BME280;2501;51.214;6.768;2023-08-06T04:39:48;100018.22;;;15.03;100.00
4972;BME280;2501;51.214;6.768;2023-08-06T04:42:16;100020.22;;;14.92;100.00
4972;BME280;2501;51.214;6.768;2023-08-06T04:44:45;100015.06;;;14.89;100.00
4972;BME280;2501;51.214;6.768;2023-08-06T04:47:16;100024.63;;;14.93;100.00
4972;BME280;2501;51.214;6.768;2023-08-06T04:49:44;100015.78;;;14.94;100.00
4972;BME280;2501;51.214;6.768;2023-08-06T04:52:13;100020.16;;;14.95;100.00
4972;BME280;2501;51.214;6.768;2023-08-06T04:54:41;100012.16;;;15.00;100.00
4972;BME280;2501;51.214;6.768;2023-08-06T04:57:09;100027.19;;;14.96;100.00
4972;BME280;2501;51.214;6.768;2023-08-06T04:59:38;100029.38;;;15.14;100.00
4972;BME280;2501;51.214;6.768;2023-08-06T05:02:07;100030.72;;;15.32;100.00
4972;BME280;2501;51.214;6.768;2023-08-06T05:04:38;100025.22;;;15.06;100.00
4972;BME280;2501;51.214;6.768;2023-08-06T05:07:06;100028.22;;;15.26;100.00
4972;BME280;2501;51.214;6.768;2023-08-06T05:09:35;100033.63;;;15.21;100.00
4972;BME280;2501;51.214;6.768;2023-08-06T05:12:04;100026.19;;;15.02;100.00
4972;BME280;2501;51.214;6.768;2023-08-06T05:14:33;100032.16;;;15.08;100.00
4972;BME280;2501;51.214;6.768;2023-08-06T05:17:01;100039.31;;;15.05;100.00
4972;BME280;2501;51.214;6.768;2023-08-06T05:19:30;100026.81;;;15.11;100.00
4972;BME280;2501;51.214;6.768;2023-08-06T05:22:01;100033.63;;;15.21;100.00
4972;BME280;2501;51.214;6.768;2023-08-06T05:24:30;100045.94;;;15.22;100.00
4972;BME280;2501;51.214;6.768;2023-08-06T05:26:58;100039.06;;;15.15;100.00
4972;BME280;2501;51.214;6.768;2023-08-06T05:29:26;100034.72;;;15.13;100.00
4972;BME280;2501;51.214;6.768;2023-08-06T05:31:55;100039.81;;;15.20;100.00
4972;BME280;2501;51.214;6.768;2023-08-06T05:34:23;100037.31;;;15.14;100.00
4972;BME280;2501;51.214;6.768;2023-08-06T05:36:52;100035.44;;;15.19;100.00
4972;BME280;2501;51.214;6.768;2023-08-06T05:39:23;100034.53;;;15.20;100.00
4972;BME280;2501;51.214;6.768;2023-08-06T05:41:51;100043.13;;;15.28;100.00
4972;BME280;2501;51.214;6.768;2023-08-06T05:44:20;100043.19;;;15.25;100.00
4972;BME280;2501;51.214;6.768;2023-08-06T05:46:49;100046.91;;;15.18;100.00
4972;BME280;2501;51.214;6.768;2023-08-06T05:49:18;100047.75;;;15.20;100.00
4972;BME280;2501;51.214;6.768;2023-08-06T05:51:47;100049.13;;;15.35;100.00
4972;BME280;2501;51.214;6.768;2023-08-06T05:54:15;100053.56;;;15.35;100.00
4972;BME280;2501;51.214;6.768;2023-08-06T05:56:46;100054.22;;;15.43;100.00
4972;BME280;2501;51.214;6.768;2023-08-06T05:59:15;100052.94;;;15.59;100.00
4972;BME280;2501;51.214;6.768;2023-08-06T06:01:43;100046.25;;;15.44;100.00
4972;BME280;2501;51.214;6.768;2023-08-06T06:04:11;100051.75;;;15.72;100.00
4972;BME280;2501;51.214;6.768;2023-08-06T06:06:40;100057.97;;;15.70;100.00
4972;BME280;2501;51.214;6.768;2023-08-06T06:09:10;100064.16;;;15.69;100.00
4972;BME280;2501;51.214;6.768;2023-08-06T06:11:38;100067.03;;;15.59;100.00
4972;BME280;2501;51.214;6.768;2023-08-06T06:14:09;100066.75;;;15.72;100.00
4972;BME280;2501;51.214;6.768;2023-08-06T06:16:38;100069.16;;;15.79;100.00
4972;BME280;2501;51.214;6.768;2023-08-06T06:19:06;100069.25;;;16.10;100.00
4972;BME280;2501;51.214;6.768;2023-08-06T06:21:35;100072.25;;;15.96;100.00
4972;BME280;2501;51.214;6.768;2023-08-06T06:24:03;100071.09;;;15.74;100.00
4972;BME280;2501;51.214;6.768;2023-08-06T06:26:33;100077.09;;;16.12;100.00
4972;BME280;2501;51.214;6.768;2023-08-06T06:29:02;100076.53;;;15.68;100.00
4972;BME280;2501;51.214;6.768;2023-08-06T06:31:33;100079.66;;;15.82;100.00
4972;BME280;2501;51.214;6.768;2023-08-06T06:34:01;100085.19;;;16.07;100.00
4972;BME280;2501;51.214;6.768;2023-08-06T06:36:30;100081.53;;;16.11;100.00
4972;BME280;2501;51.214;6.768;2023-08-06T06:38:58;100081.28;;;16.20;100.00
4972;BME280;2501;51.214;6.768;2023-08-06T06:41:26;100086.53;;;16.22;100.00
4972;BME280;2501;51.214;6.768;2023-08-06T06:43:57;100092.41;;;16.33;100.00
4972;BME280;2501;51.214;6.768;2023-08-06T06:46:25;100092.03;;;16.78;99.80
4972;BME280;2501;51.214;6.768;2023-08-06T06:48:56;100086.91;;;16.72;98.18
4972;BME280;2501;51.214;6.768;2023-08-06T06:51:25;100085.22;;;16.69;96.71
4972;BME280;2501;51.214;6.768;2023-08-06T06:53:53;100091.56;;;16.93;96.05
4972;BME280;2501;51.214;6.768;2023-08-06T06:56:22;100081.72;;;16.67;96.86
4972;BME280;2501;51.214;6.768;2023-08-06T06:58:51;100085.91;;;16.76;97.53
4972;BME280;2501;51.214;6.768;2023-08-06T07:01:19;100083.69;;;16.60;97.56
4972;BME280;2501;51.214;6.768;2023-08-06T07:03:48;100083.84;;;16.54;98.28
4972;BME280;2501;51.214;6.768;2023-08-06T07:06:19;100087.09;;;16.33;98.96
4972;BME280;2501;51.214;6.768;2023-08-06T07:08:47;100095.75;;;16.40;99.44
4972;BME280;2501;51.214;6.768;2023-08-06T07:11:15;100091.03;;;16.49;99.85
4972;BME280;2501;51.214;6.768;2023-08-06T07:13:44;100093.97;;;16.71;99.44
4972;BME280;2501;51.214;6.768;2023-08-06T07:16:12;100097.19;;;16.81;98.11
4972;BME280;2501;51.214;6.768;2023-08-06T07:18:41;100093.28;;;16.94;96.52
4972;BME280;2501;51.214;6.768;2023-08-06T07:21:09;100100.84;;;16.78;95.83
4972;BME280;2501;51.214;6.768;2023-08-06T07:23:40;100093.13;;;16.98;94.96
4972;BME280;2501;51.214;6.768;2023-08-06T07:26:08;100089.63;;;18.05;92.15
4972;BME280;2501;51.214;6.768;2023-08-06T07:28:37;100098.75;;;17.98;86.14
4972;BME280;2501;51.214;6.768;2023-08-06T07:31:05;100095.63;;;17.85;88.08
4972;BME280;2501;51.214;6.768;2023-08-06T07:33:34;100100.34;;;17.49;88.77
4972;BME280;2501;51.214;6.768;2023-08-06T07:36:08;100101.03;;;17.56;87.58
4972;BME280;2501;51.214;6.768;2023-08-06T07:38:36;100100.06;;;17.58;86.84
4972;BME280;2501;51.214;6.768;2023-08-06T07:41:08;100104.38;;;17.34;88.78
4972;BME280;2501;51.214;6.768;2023-08-06T07:43:37;100101.50;;;17.95;88.23
4972;BME280;2501;51.214;6.768;2023-08-06T07:46:05;100093.06;;;18.33;84.66
4972;BME280;2501;51.214;6.768;2023-08-06T07:48:34;100093.78;;;18.62;83.19
4972;BME280;2501;51.214;6.768;2023-08-06T07:51:02;100091.78;;;18.19;82.01
4972;BME280;2501;51.214;6.768;2023-08-06T07:53:31;100098.41;;;18.07;83.24
4972;BME280;2501;51.214;6.768;2023-08-06T07:55:59;100097.09;;;18.68;82.36
4972;BME280;2501;51.214;6.768;2023-08-06T07:58:30;100100.50;;;18.47;82.13
4972;BME280;2501;51.214;6.768;2023-08-06T08:00:59;100100.72;;;18.18;83.46
4972;BME280;2501;51.214;6.768;2023-08-06T08:03:28;100108.00;;;18.11;83.69
4972;BME280;2501;51.214;6.768;2023-08-06T08:05:57;100113.41;;;17.83;86.53
4972;BME280;2501;51.214;6.768;2023-08-06T08:08:25;100101.84;;;18.11;86.69
4972;BME280;2501;51.214;6.768;2023-08-06T08:10:54;100113.28;;;17.86;87.36
4972;BME280;2501;51.214;6.768;2023-08-06T08:13:24;100120.34;;;18.12;86.55
4972;BME280;2501;51.214;6.768;2023-08-06T08:15:59;100119.59;;;18.08;85.66
4972;BME280;2501;51.214;6.768;2023-08-06T08:18:31;100120.47;;;18.09;86.21
4972;BME280;2501;51.214;6.768;2023-08-06T08:20:59;100116.84;;;18.12;85.74
4972;BME280;2501;51.214;6.768;2023-08-06T08:23:28;100119.22;;;18.44;84.85
4972;BME280;2501;51.214;6.768;2023-08-06T08:25:56;100118.56;;;18.37;84.30
4972;BME280;2501;51.214;6.768;2023-08-06T08:28:27;100117.50;;;18.18;83.72
4972;BME280;2501;51.214;6.768;2023-08-06T08:30:56;100124.84;;;18.60;84.28
4972;BME280;2501;51.214;6.768;2023-08-06T08:33:27;100112.63;;;19.02;82.14
4972;BME280;2501;51.214;6.768;2023-08-06T08:35:55;100115.25;;;19.69;76.39
4972;BME280;2501;51.214;6.768;2023-08-06T08:38:26;100121.91;;;19.36;76.53
4972;BME280;2501;51.214;6.768;2023-08-06T08:40:55;100115.47;;;19.41;76.04
4972;BME280;2501;51.214;6.768;2023-08-06T08:43:24;100116.09;;;18.81;77.08
4972;BME280;2501;51.214;6.768;2023-08-06T08:45:53;100123.34;;;18.53;78.28
4972;BME280;2501;51.214;6.768;2023-08-06T08:48:27;100118.22;;;18.71;79.69
4972;BME280;2501;51.214;6.768;2023-08-06T08:50:56;100119.72;;;19.24;75.99
4972;BME280;2501;51.214;6.768;2023-08-06T08:53:26;100125.16;;;18.99;74.22
4972;BME280;2501;51.214;6.768;2023-08-06T08:55:56;100118.84;;;18.78;75.70
4972;BME280;2501;51.214;6.768;2023-08-06T08:58:25;100126.66;;;18.83;73.83
4972;BME280;2501;51.214;6.768;2023-08-06T09:00:53;100125.44;;;19.36;73.07
4972;BME280;2501;51.214;6.768;2023-08-06T09:03:22;100129.97;;;19.34;73.27
4972;BME280;2501;51.214;6.768;2023-08-06T09:05:55;100123.19;;;19.71;72.73
4972;BME280;2501;51.214;6.768;2023-08-06T09:08:27;100124.69;;;20.19;70.38
4972;BME280;2501;51.214;6.768;2023-08-06T09:10:56;100135.38;;;19.55;72.21
4972;BME280;2501;51.214;6.768;2023-08-06T09:13:25;100135.22;;;19.58;71.27
4972;BME280;2501;51.214;6.768;2023-08-06T09:15:53;100135.38;;;19.97;70.60
4972;BME280;2501;51.214;6.768;2023-08-06T09:18:25;100131.75;;;20.40;69.52
4972;BME280;2501;51.214;6.768;2023-08-06T09:20:57;100133.63;;;20.38;68.56
4972;BME280;2501;51.214;6.768;2023-08-06T09:23:29;100130.63;;;20.25;66.98
4972;BME280;2501;51.214;6.768;2023-08-06T09:25:59;100140.16;;;19.00;75.43
4972;BME280;2501;51.214;6.768;2023-08-06T09:28:36;100160.03;;;17.34;90.51
4972;BME280;2501;51.214;6.768;2023-08-06T09:31:08;100165.56;;;16.68;100.00
4972;BME280;2501;51.214;6.768;2023-08-06T09:33:37;100174.88;;;16.49;100.00
4972;BME280;2501;51.214;6.768;2023-08-06T09:36:12;100184.44;;;16.22;100.00
4972;BME280;2501;51.214;6.768;2023-08-06T09:38:41;100186.25;;;16.20;100.00
4972;BME280;2501;51.214;6.768;2023-08-06T09:41:09;100185.94;;;15.98;100.00
4972;BME280;2501;51.214;6.768;2023-08-06T09:43:41;100189.53;;;15.94;100.00
4972;BME280;2501;51.214;6.768;2023-08-06T09:46:13;100194.84;;;15.94;100.00
4972;BME280;2501;51.214;6.768;2023-08-06T09:48:45;100192.25;;;15.92;100.00
4972;BME280;2501;51.214;6.768;2023-08-06T09:51:16;100200.19;;;15.92;100.00
4972;BME280;2501;51.214;6.768;2023-08-06T09:53:46;100210.19;;;15.80;100.00
4972;BME280;2501;51.214;6.768;2023-08-06T09:56:17;100206.84;;;15.73;100.00
4972;BME280;2501;51.214;6.768;2023-08-06T09:58:52;100205.03;;;15.75;100.00
4972;BME280;2501;51.214;6.768;2023-08-06T10:01:24;100205.91;;;15.76;100.00
4972;BME280;2501;51.214;6.768;2023-08-06T10:04:12;100215.03;;;15.61;100.00
4972;BME280;2501;51.214;6.768;2023-08-06T10:06:56;100208.19;;;15.51;100.00
4972;BME280;2501;51.214;6.768;2023-08-06T10:09:42;100216.31;;;15.42;100.00
4972;BME280;2501;51.214;6.768;2023-08-06T10:12:17;100221.50;;;15.46;100.00
4972;BME280;2501;51.214;6.768;2023-08-06T10:14:47;100213.75;;;15.39;100.00
4972;BME280;2501;51.214;6.768;2023-08-06T10:17:18;100225.97;;;15.43;100.00
4972;BME280;2501;51.214;6.768;2023-08-06T10:19:47;100223.09;;;15.55;100.00
4972;BME280;2501;51.214;6.768;2023-08-06T10:22:19;100231.50;;;15.32;100.00
4972;BME280;2501;51.214;6.768;2023-08-06T10:24:49;100238.88;;;15.18;100.00
4972;BME280;2501;51.214;6.768;2023-08-06T10:27:22;100235.50;;;15.10;100.00
4972;BME280;2501;51.214;6.768;2023-08-06T10:29:51;100229.31;;;15.11;100.00
4972;BME280;2501;51.214;6.768;2023-08-06T10:32:19;100237.78;;;15.26;100.00
4972;BME280;2501;51.214;6.768;2023-08-06T10:34:55;100249.38;;;15.21;100.00
4972;BME280;2501;51.214;6.768;2023-08-06T10:37:35;100256.63;;;15.10;100.00
4972;BME280;2501;51.214;6.768;2023-08-06T10:40:06;100253.34;;;14.98;100.00
4972;BME280;2501;51.214;6.768;2023-08-06T10:42:35;100267.41;;;15.01;100.00
4972;BME280;2501;51.214;6.768;2023-08-06T10:45:14;100274.97;;;15.17;100.00
4972;BME280;2501;51.214;6.768;2023-08-06T10:47:43;100282.31;;;15.03;100.00
4972;BME280;2501;51.214;6.768;2023-08-06T10:50:13;100276.56;;;14.81;100.00
4972;BME280;2501;51.214;6.768;2023-08-06T10:52:46;100284.28;;;14.44;100.00
4972;BME280;2501;51.214;6.768;2023-08-06T10:55:22;100284.91;;;14.58;100.00
4972;BME280;2501;51.214;6.768;2023-08-06T10:57:51;100295.78;;;14.40;100.00
4972;BME280;2501;51.214;6.768;2023-08-06T11:00:20;100288.59;;;14.50;100.00
4972;BME280;2501;51.214;6.768;2023-08-06T11:02:49;100292.09;;;14.50;100.00
4972;BME280;2501;51.214;6.768;2023-08-06T11:05:17;100299.06;;;14.54;100.00
4972;BME280;2501;51.214;6.768;2023-08-06T11:07:48;100297.34;;;14.53;100.00
4972;BME280;2501;51.214;6.768;2023-08-06T11:10:18;100294.13;;;14.84;100.00
4972;BME280;2501;51.214;6.768;2023-08-06T11:12:46;100294.97;;;14.86;100.00
4972;BME280;2501;51.214;6.768;2023-08-06T11:15:15;100298.59;;;14.80;100.00
4972;BME280;2501;51.214;6.768;2023-08-06T11:17:43;100297.91;;;15.15;100.00
4972;BME280;2501;51.214;6.768;2023-08-06T11:20:11;100293.28;;;15.25;100.00
4972;BME280;2501;51.214;6.768;2023-08-06T11:22:40;100295.91;;;15.26;100.00
4972;BME280;2501;51.214;6.768;2023-08-06T11:25:11;100312.03;;;15.13;100.00
4972;BME280;2501;51.214;6.768;2023-08-06T11:27:40;100309.66;;;15.01;100.00
4972;BME280;2501;51.214;6.768;2023-08-06T11:30:11;100316.03;;;14.89;100.00
4972;BME280;2501;51.214;6.768;2023-08-06T11:32:46;100314.34;;;14.85;100.00
4972;BME280;2501;51.214;6.768;2023-08-06T11:35:15;100315.28;;;14.82;100.00
4972;BME280;2501;51.214;6.768;2023-08-06T11:37:44;100322.38;;;14.79;100.00
4972;BME280;2501;51.214;6.768;2023-08-06T11:40:17;100318.03;;;14.75;100.00
4972;BME280;2501;51.214;6.768;2023-08-06T11:42:47;100320.34;;;14.93;100.00
4972;BME280;2501;51.214;6.768;2023-08-06T11:45:15;100321.19;;;14.95;100.00
4972;BME280;2501;51.214;6.768;2023-08-06T11:47:49;100324.88;;;14.88;100.00
4972;BME280;2501;51.214;6.768;2023-08-06T11:50:25;100332.53;;;15.02;100.00
4972;BME280;2501;51.214;6.768;2023-08-06T11:52:56;100333.69;;;14.87;100.00
4972;BME280;2501;51.214;6.768;2023-08-06T11:55:28;100338.66;;;15.04;100.00
4972;BME280;2501;51.214;6.768;2023-08-06T11:57:57;100336.19;;;14.93;100.00
4972;BME280;2501;51.214;6.768;2023-08-06T12:00:26;100346.59;;;15.02;100.00
4972;BME280;2501;51.214;6.768;2023-08-06T12:02:55;100342.44;;;14.89;100.00
4972;BME280;2501;51.214;6.768;2023-08-06T12:05:29;100343.44;;;14.82;100.00
4972;BME280;2501;51.214;6.768;2023-08-06T12:07:59;100348.56;;;14.89;100.00
4972;BME280;2501;51.214;6.768;2023-08-06T12:10:32;100348.72;;;14.82;100.00
4972;BME280;2501;51.214;6.768;2023-08-06T12:13:00;100346.88;;;14.88;100.00
4972;BME280;2501;51.214;6.768;2023-08-06T12:15:29;100347.22;;;14.67;100.00
4972;BME280;2501;51.214;6.768;2023-08-06T12:17:57;100355.25;;;14.59;100.00
4972;BME280;2501;51.214;6.768;2023-08-06T12:20:26;100362.78;;;14.84;100.00
4972;BME280;2501;51.214;6.768;2023-08-06T12:22:54;100363.63;;;14.86;100.00
4972;BME280;2501;51.214;6.768;2023-08-06T12:25:23;100366.22;;;14.89;100.00
4972;BME280;2501;51.214;6.768;2023-08-06T12:27:52;100364.97;;;15.07;100.00
4972;BME280;2501;51.214;6.768;2023-08-06T12:30:20;100363.41;;;14.96;100.00
4972;BME280;2501;51.214;6.768;2023-08-06T12:32:49;100361.69;;;14.94;100.00
4972;BME280;2501;51.214;6.768;2023-08-06T12:35:17;100373.00;;;15.02;100.00
4972;BME280;2501;51.214;6.768;2023-08-06T12:37:46;100370.97;;;15.16;100.00
4972;BME280;2501;51.214;6.768;2023-08-06T12:40:17;100365.72;;;15.15;100.00
4972;BME280;2501;51.214;6.768;2023-08-06T12:42:54;100374.41;;;15.21;100.00
4972;BME280;2501;51.214;6.768;2023-08-06T12:45:24;100378.38;;;14.96;100.00
4972;BME280;2501;51.214;6.768;2023-08-06T12:47:53;100378.41;;;14.94;100.00
4972;BME280;2501;51.214;6.768;2023-08-06T12:50:21;100387.59;;;15.23;100.00
4972;BME280;2501;51.214;6.768;2023-08-06T12:52:50;100387.72;;;15.15;100.00
4972;BME280;2501;51.214;6.768;2023-08-06T12:55:18;100398.22;;;15.20;100.00
4972;BME280;2501;51.214;6.768;2023-08-06T12:57:47;100395.59;;;15.18;100.00
4972;BME280;2501;51.214;6.768;2023-08-06T13:00:18;100406.41;;;15.06;100.00
4972;BME280;2501;51.214;6.768;2023-08-06T13:02:46;100401.50;;;15.31;100.00
4972;BME280;2501;51.214;6.768;2023-08-06T13:05:15;100403.28;;;15.30;100.00
4972;BME280;2501;51.214;6.768;2023-08-06T13:07:43;100415.38;;;14.94;100.00
4972;BME280;2501;51.214;6.768;2023-08-06T13:10:12;100428.53;;;15.45;100.00
4972;BME280;2501;51.214;6.768;2023-08-06T13:12:40;100419.13;;;15.30;100.00
4972;BME280;2501;51.214;6.768;2023-08-06T13:15:09;100423.44;;;15.38;100.00